Refine Search
Year Filed

2010 ×

Court

Arizona ×

Click on desired case number or refine your search to continue

Case TitleCourtCase NoChpDate FiledClosedDisposition
DEED AND NOTE TRADERS, L.L.C.Arizona4:10-bk-036401102/12/201004/25/2018Discharge Not Applicable
CB 48 LLCArizona2:10-bk-209551107/06/201012/24/2013Discharge Not Applicable
WESTERN BLOCK COMPANY, INC.Arizona2:10-bk-189451106/16/201006/25/2013Discharge Not Applicable
YELLOW STAR, LLCArizona2:10-bk-284481109/07/201007/18/2011Discharge Not Applicable 07/18/2011
PLEIN ENTERPRISES, INC.Arizona2:10-bk-24919708/06/201009/12/2017
94TH AND SHEA, L.L.C.Arizona2:10-bk-37387711/19/2010
DANNY'S HAPPY VALLEY, L.L.C.Arizona2:10-bk-027941102/03/201006/30/2014Discharge Not Applicable
4805, LLCArizona2:10-bk-358521111/05/201003/01/2013Dismissed for Other Reason 10/31/2012
MSA 1, LLCArizona4:10-bk-077161103/22/2010
Mission Fiber Group, Inc.Arizona2:10-bk-15761705/20/2010
Cornerstone Partners, LLCArizona2:10-bk-262081108/18/201007/07/2011Discharge Not Applicable
AMERICAN DISCOUNT MORTGAGEArizona2:10-bk-19785706/24/201008/23/2012Standard Discharge
BLACK STAR, LLC (closed)Arizona2:10-bk-284471109/07/201012/10/2014
84TH & BELL, LLC (closed)Arizona2:10-bk-057961103/04/2010
DANNY'S FAMILY COMPANIES, LLC (closed)Arizona2:10-bk-057921103/04/2010
83RD & UNION HILLS, LLC (closed)Arizona2:10-bk-057991103/04/2010
PLATINUM INSURANCE SERVICES, LLCArizona2:10-bk-18909706/16/2010
NATIONAL CAR CARE DEVELOPMENT CORPORATION (closed)Arizona2:10-bk-057951103/04/2010
3RD & BELL, LLC (closed)Arizona2:10-bk-057971103/04/2010
TEXAS HILL ENTERPRISES, GPArizona0:10-bk-111211104/15/201003/21/2014Dismissed for Other Reason 01/03/2013
THE CLUB AT SEVEN CANYONS, LLCArizona3:10-bk-167141105/27/201003/27/2014
HK DIVERSIFIED INVESTMENTS, LLCArizona2:10-bk-17631706/04/2010
CM REALTY HOLDINGS, LLCArizona2:10-bk-102141104/08/2010
NEW FLOORZ, LLCArizona2:10-bk-36428711/10/2010
AZMP, LLCArizona0:10-bk-228111107/21/201003/21/2013
EXPERTS ON SIGHT, LLCArizona2:10-bk-148131105/13/201009/13/2012
YUMA FUN FACTORY, LLCArizona0:10-bk-12535704/27/201009/30/2015Discharge Not Applicable
BIOAUTHORIZE INCArizona2:10-bk-03505702/11/201007/31/2013Discharge Not Applicable
FILM MANAGEMENT SERVICES CORPORATIONArizona2:10-bk-16628705/27/2010
VICTORY AWNING CO, LLCArizona2:10-bk-05712703/04/2010
PC-RA, L.L.C.Arizona2:10-bk-117511104/21/201012/29/2017Dismissed for Other Reason 12/13/2017
ARIZONA HEART INSTITUTE, LTD.Arizona2:10-bk-24062707/30/2010
BMI BERGNER MANUFACTURING, INC.Arizona2:10-bk-30569709/23/2010
SANDWICH SENSATIONS, INC.Arizona0:10-bk-02256701/28/201008/19/2013Discharge Not Applicable
SEDONA DEVELOPMENT PARTNERS, LLC and THE CLUB AT SEVEN CANYONS, LLCArizona3:10-bk-167111105/27/201003/09/2017Discharge Not Applicable